Terminal Aerodrome Forecast
Issued by NWS State College, PA

Current Version | Previous Version | Text Only | Print | Product List | Glossary On
Versions: 1 2 3 4 5 6 7 8 9 10 11 12 13 14 15 16 17 18 19 20 21 22 23 24 25 26
000
FTUS41 KCTP 251740
TAFMDT
TAF
KMDT 251740Z 2518/2618 27012G17KT P6SM SCT250
     FM251900 26012G20KT P6SM SCT070
     FM260500 28012G20KT P6SM BKN040
     FM261400 30015G28KT P6SM SCT040=

USA.gov is the U.S. government's official web portal to all federal, state and local government web resources and services.